Time;durP1;ratioP1;P1;durP2;ratioP2;P2;SDS_P1;SDS_P2;PMS_P1;PMS_P2;Temp;Humidity;BMP_temperature;BMP_pressure;BME280_temperature;BME280_humidity;BME280_pressure;Samples;Min_cycle;Max_cycle;Signal;HPM_P1;HPM_P2
2022/04/09 00:00:23;;;;;;;2.38;1.15;;;;;;;16.00;52.16;93649.75;5034371;28;20198;-65
2022/04/09 00:02:50;;;;;;;4.13;1.60;;;;;;;16.04;51.65;93659.44;5034503;28;20296;-66
2022/04/09 00:05:16;;;;;;;2.55;1.10;;;;;;;16.01;51.04;93672.63;5034489;28;20178;-62
2022/04/09 00:07:42;;;;;;;3.50;1.48;;;;;;;16.07;50.87;93674.44;5033053;28;20573;-64
2022/04/09 00:10:10;;;;;;;2.42;1.25;;;;;;;16.08;51.08;93675.25;5034435;28;20171;-63
2022/04/09 00:12:36;;;;;;;3.42;1.27;;;;;;;16.33;50.93;93678.94;5034209;28;20206;-64
2022/04/09 00:15:02;;;;;;;2.33;1.30;;;;;;;16.26;50.77;93675.56;5034266;28;20649;-66
2022/04/09 00:17:28;;;;;;;1.85;1.35;;;;;;;16.23;51.43;93670.81;5034488;28;20185;-66
2022/04/09 00:19:53;;;;;;;2.42;0.98;;;;;;;16.12;51.05;93686.72;5034635;28;20175;-66
2022/04/09 00:22:19;;;;;;;3.38;1.20;;;;;;;16.34;50.50;93695.94;5032739;28;20245;-65
2022/04/09 00:24:51;;;;;;;3.17;1.20;;;;;;;16.19;50.70;93683.22;5034623;28;20255;-65
2022/04/09 00:27:16;;;;;;;3.20;1.17;;;;;;;16.19;50.48;93690.91;5034203;28;20676;-64
2022/04/09 00:29:42;;;;;;;2.85;1.10;;;;;;;16.17;50.47;93682.59;5034555;28;20182;-62
2022/04/09 00:32:07;;;;;;;2.92;1.20;;;;;;;16.20;50.58;93684.00;5033746;28;20583;-62
2022/04/09 00:34:33;;;;;;;2.13;1.08;;;;;;;16.09;50.83;93679.38;5034452;28;20183;-61
2022/04/09 00:36:58;;;;;;;2.47;0.93;;;;;;;16.02;51.18;93671.63;5033968;28;20726;-61
2022/04/09 00:39:24;;;;;;;1.90;1.10;;;;;;;16.19;50.91;93672.16;5034410;28;20181;-64
2022/04/09 00:41:50;;;;;;;2.00;1.38;;;;;;;16.07;51.19;93678.78;5032182;28;20600;-61
2022/04/09 00:44:17;;;;;;;3.88;1.27;;;;;;;15.98;51.54;93651.72;5034133;28;20193;-61
2022/04/09 00:46:44;;;;;;;2.17;0.90;;;;;;;16.01;51.47;93659.03;5032886;28;20202;-63
2022/04/09 00:49:09;;;;;;;3.42;1.15;;;;;;;16.00;51.40;93645.41;5033984;28;20194;-63
2022/04/09 00:51:39;;;;;;;1.95;1.10;;;;;;;15.91;51.68;93638.84;5032297;28;20256;-60
2022/04/09 00:54:06;;;;;;;1.88;1.00;;;;;;;16.14;51.52;93643.72;5032440;28;20187;-64
2022/04/09 00:56:33;;;;;;;2.05;1.17;;;;;;;16.02;51.51;93640.88;5033320;28;20250;-62
2022/04/09 00:59:02;;;;;;;2.88;1.15;;;;;;;15.93;52.03;93637.69;5032243;28;20657;-62
2022/04/09 01:01:32;;;;;;;5.55;1.27;;;;;;;15.86;52.21;93626.59;5033532;28;20292;-63
2022/04/09 01:03:58;;;;;;;2.78;1.20;;;;;;;15.83;52.71;93626.16;5032424;28;20269;-60
2022/04/09 01:06:24;;;;;;;2.60;1.10;;;;;;;15.83;52.89;93619.28;5033331;28;20202;-62
2022/04/09 01:08:49;;;;;;;1.75;1.10;;;;;;;15.76;52.93;93607.38;5033296;28;20593;-63
2022/04/09 01:11:15;;;;;;;0.98;0.80;;;;;;;15.78;53.35;93593.41;5033231;28;20202;-62
2022/04/09 01:13:46;;;;;;;1.65;0.80;;;;;;;15.81;53.09;93603.31;5033505;28;20179;-66
2022/04/09 01:16:12;;;;;;;2.75;1.20;;;;;;;15.82;53.43;93597.19;5033432;28;20203;-60
2022/04/09 01:18:41;;;;;;;3.13;1.20;;;;;;;15.87;53.90;93586.38;5033248;28;20253;-62
2022/04/09 01:21:06;;;;;;;1.42;1.00;;;;;;;15.81;53.77;93593.03;5033023;28;20214;-62
2022/04/09 01:23:32;;;;;;;2.80;1.10;;;;;;;15.76;53.96;93574.06;5032881;28;20549;-66
2022/04/09 01:25:59;;;;;;;5.10;1.23;;;;;;;15.87;54.61;93579.47;5032830;28;20260;-63
2022/04/09 01:28:26;;;;;;;2.90;1.27;;;;;;;15.89;54.69;93594.66;5038606;23;20627;-63
2022/04/09 01:30:52;;;;;;;2.63;1.55;;;;;;;15.96;54.55;93590.34;5032808;28;20209;-61
2022/04/09 01:33:19;;;;;;;2.15;1.77;;;;;;;15.83;54.90;93591.09;5032726;28;20186;-61
2022/04/09 01:35:45;;;;;;;2.92;1.70;;;;;;;15.89;55.33;93586.97;5031722;28;20289;-62
2022/04/09 01:38:12;;;;;;;2.80;1.70;;;;;;;15.88;55.34;93580.25;5033000;28;20166;-61
2022/04/09 01:40:38;;;;;;;1.88;1.42;;;;;;;15.71;55.95;93579.78;5032685;28;20210;-65
2022/04/09 01:43:03;;;;;;;3.08;1.30;;;;;;;15.59;55.00;93594.06;5031703;28;20213;-62
2022/04/09 01:45:29;;;;;;;4.82;1.70;;;;;;;15.42;55.70;93577.38;5031214;28;20293;-65
2022/04/09 01:47:55;;;;;;;4.00;1.40;;;;;;;15.49;56.73;93569.75;5032524;28;20182;-61
2022/04/09 01:50:26;;;;;;;2.13;1.38;;;;;;;15.42;57.24;93558.63;5031562;28;20250;-62
2022/04/09 01:52:51;;;;;;;3.70;1.50;;;;;;;15.42;56.59;93576.56;5031813;28;20185;-61
2022/04/09 01:55:17;;;;;;;1.75;1.25;;;;;;;15.23;57.78;93562.59;5032640;28;20303;-67
2022/04/09 01:57:42;;;;;;;3.72;1.55;;;;;;;15.15;58.08;93570.41;5033025;28;20182;-63
2022/04/09 02:00:10;;;;;;;2.65;1.50;;;;;;;15.28;58.01;93585.91;5032781;28;20174;-66
2022/04/09 02:02:35;;;;;;;2.28;1.35;;;;;;;15.17;57.27;93590.72;5032737;28;20206;-65
2022/04/09 02:05:02;;;;;;;3.47;1.85;;;;;;;15.14;57.75;93585.00;5031230;28;20182;-61
2022/04/09 02:07:27;;;;;;;2.90;1.55;;;;;;;15.19;58.16;93578.53;5032683;28;20205;-61
2022/04/09 02:09:54;;;;;;;7.82;1.63;;;;;;;15.49;57.08;93592.81;5032570;28;20178;-61
2022/04/09 02:12:19;;;;;;;2.45;1.63;;;;;;;15.58;57.32;93596.81;5031012;28;20704;-63
2022/04/09 02:14:45;;;;;;;2.58;1.50;;;;;;;15.64;56.83;93589.16;5030977;28;20186;-63
2022/04/09 02:17:11;;;;;;;2.92;1.85;;;;;;;15.43;57.60;93588.44;5032545;28;20202;-62
2022/04/09 02:19:38;;;;;;;3.00;1.63;;;;;;;15.35;58.32;93585.97;5030765;28;20182;-66
2022/04/09 02:22:04;;;;;;;5.38;2.05;;;;;;;15.36;58.40;93577.28;5032239;28;20734;-63
2022/04/09 02:24:29;;;;;;;4.65;1.85;;;;;;;14.84;60.67;93550.28;5031908;28;20209;-62
2022/04/09 02:26:55;;;;;;;3.20;1.83;;;;;;;14.73;61.27;93570.41;5032128;28;20218;-66
2022/04/09 02:29:20;;;;;;;4.18;1.70;;;;;;;14.95;60.33;93556.66;5032065;28;20206;-62
2022/04/09 02:31:46;;;;;;;4.60;2.00;;;;;;;14.31;62.38;93563.47;5032116;28;20560;-62
2022/04/09 02:34:11;;;;;;;3.47;1.90;;;;;;;14.63;61.27;93573.25;5032071;28;20171;-62
2022/04/09 02:36:37;;;;;;;3.58;1.98;;;;;;;14.66;61.04;93579.78;5030480;28;20241;-64
2022/04/09 02:39:04;;;;;;;7.57;2.08;;;;;;;14.53;61.75;93574.53;5031994;28;20658;-67
2022/04/09 02:41:29;;;;;;;3.28;1.88;;;;;;;14.51;62.07;93579.03;5031996;28;20208;-65
2022/04/09 02:43:55;;;;;;;5.85;2.08;;;;;;;14.69;61.98;93564.88;5031842;28;20202;-61
2022/04/09 02:46:21;;;;;;;3.45;1.95;;;;;;;14.08;63.35;93558.44;5031787;28;20221;-61
2022/04/09 02:48:47;;;;;;;3.60;1.83;;;;;;;14.40;63.05;93564.97;5031807;28;20176;-62
2022/04/09 02:51:13;;;;;;;5.13;2.03;;;;;;;14.41;63.47;93561.41;5031995;28;20213;-60
2022/04/09 02:53:38;;;;;;;3.20;1.95;;;;;;;14.42;62.57;93578.34;5032211;28;20193;-60
2022/04/09 02:56:05;;;;;;;5.85;2.15;;;;;;;14.02;64.68;93546.38;5036672;28;20241;-65
2022/04/09 02:58:31;;;;;;;5.10;2.28;;;;;;;13.72;66.12;93556.75;5038407;28;20604;-63
2022/04/09 03:00:56;;;;;;;4.78;1.92;;;;;;;13.99;65.17;93574.03;5038173;28;20202;-62
2022/04/09 03:03:22;;;;;;;5.43;1.73;;;;;;;13.71;65.57;93552.63;5038215;28;20297;-66
2022/04/09 03:05:48;;;;;;;5.03;2.03;;;;;;;13.44;67.51;93547.16;5038249;28;20197;-61
2022/04/09 03:08:14;;;;;;;3.72;2.10;;;;;;;13.43;67.77;93549.88;5038205;28;20178;-62
2022/04/09 03:10:40;;;;;;;4.87;2.33;;;;;;;13.53;67.43;93572.59;5038096;28;20198;-62
2022/04/09 03:13:05;;;;;;;2.47;1.83;;;;;;;13.75;65.50;93592.19;5038279;28;20200;-62
2022/04/09 03:15:31;;;;;;;9.70;2.37;;;;;;;13.32;68.56;93551.09;5036775;28;20201;-61
2022/04/09 03:17:57;;;;;;;4.43;2.15;;;;;;;13.54;67.70;93587.75;5038631;28;20209;-60
2022/04/09 03:20:22;;;;;;;9.65;2.92;;;;;;;13.70;67.17;93589.34;5044693;23;20194;-62
2022/04/09 03:22:49;;;;;;;2.97;2.00;;;;;;;13.52;67.29;93578.66;5035862;28;20202;-62
2022/04/09 03:25:15;;;;;;;3.40;1.83;;;;;;;13.58;66.77;93588.19;5037171;28;20188;-62
2022/04/09 03:27:41;;;;;;;4.82;2.30;;;;;;;13.68;66.28;93586.16;5037036;28;20186;-63
2022/04/09 03:30:09;;;;;;;2.30;1.73;;;;;;;13.60;66.54;93579.38;5037258;28;20499;-64
2022/04/09 03:32:39;;;;;;;5.03;2.58;;;;;;;13.57;67.26;93571.28;5037019;28;20185;-64
2022/04/09 03:35:06;;;;;;;7.30;2.30;;;;;;;13.50;66.96;93573.75;5035690;28;20192;-60
2022/04/09 03:37:40;;;;;;;6.22;2.42;;;;;;;13.38;67.28;93568.25;5037182;28;20206;-61
2022/04/09 03:40:07;;;;;;;5.53;2.47;;;;;;;13.44;67.25;93577.78;5035606;28;20186;-60
2022/04/09 03:42:33;;;;;;;5.22;2.42;;;;;;;13.31;67.74;93579.34;5037188;28;20217;-65
2022/04/09 03:44:58;;;;;;;4.93;2.43;;;;;;;13.24;67.55;93581.78;5037046;28;20262;-65
2022/04/09 03:47:24;;;;;;;3.83;2.10;;;;;;;13.16;68.31;93569.09;5035728;28;20185;-61
2022/04/09 03:49:49;;;;;;;4.20;1.75;;;;;;;13.26;68.57;93574.75;5036830;28;20240;-61
2022/04/09 03:52:15;;;;;;;2.28;1.80;;;;;;;13.39;68.05;93574.16;5036701;28;20210;-62
2022/04/09 03:54:41;;;;;;;3.17;2.00;;;;;;;13.61;67.77;93582.75;5036824;28;20639;-62
2022/04/09 03:57:06;;;;;;;4.40;2.03;;;;;;;13.63;66.77;93596.13;5036913;28;20736;-62
2022/04/09 03:59:32;;;;;;;5.68;2.17;;;;;;;13.62;66.95;93595.31;5035384;28;20715;-61
2022/04/09 04:01:57;;;;;;;4.00;2.63;;;;;;;13.86;66.28;93597.63;5037029;28;20202;-61
2022/04/09 04:04:23;;;;;;;8.87;2.67;;;;;;;13.83;66.81;93592.91;5036843;28;20638;-62
2022/04/09 04:06:49;;;;;;;2.70;2.10;;;;;;;13.73;66.33;93602.56;5033831;28;20563;-62
2022/04/09 04:09:16;;;;;;;2.30;2.10;;;;;;;13.59;66.44;93610.22;5033460;28;20202;-60
2022/04/09 04:11:46;;;;;;;5.18;2.38;;;;;;;13.77;66.54;93605.56;5033635;28;20632;-64
2022/04/09 04:14:12;;;;;;;2.50;2.20;;;;;;;13.94;65.80;93620.56;5032117;28;20622;-65
2022/04/09 04:16:38;;;;;;;4.50;2.03;;;;;;;13.91;65.41;93622.66;5033638;28;20198;-65
2022/04/09 04:19:04;;;;;;;6.17;2.53;;;;;;;13.79;65.95;93603.63;5033184;28;20182;-63
2022/04/09 04:21:29;;;;;;;5.50;2.85;;;;;;;13.99;65.31;93620.03;4761516;28;7805006;-62
2022/04/09 04:23:55;;;;;;;4.10;2.45;;;;;;;14.14;64.12;93631.03;5033132;28;20213;-61
2022/04/09 04:26:21;;;;;;;5.60;2.63;;;;;;;14.00;64.68;93616.50;5034612;28;20206;-62
2022/04/09 04:28:51;;;;;;;5.60;2.38;;;;;;;13.78;66.33;93600.28;5034233;28;20178;-60
2022/04/09 04:31:17;;;;;;;3.95;2.50;;;;;;;13.80;67.30;93584.75;5034131;28;20202;-62
2022/04/09 04:33:42;;;;;;;5.25;2.70;;;;;;;13.89;66.68;93597.31;5034316;28;20197;-65
2022/04/09 04:36:08;;;;;;;6.05;2.35;;;;;;;14.21;65.93;93603.81;5034331;28;20206;-62
2022/04/09 04:38:33;;;;;;;8.55;2.70;;;;;;;14.20;64.48;93631.13;5034302;28;20194;-62
2022/04/09 04:41:00;;;;;;;4.45;2.30;;;;;;;14.21;64.43;93616.59;5034217;28;20582;-62
2022/04/09 04:43:25;;;;;;;5.70;2.58;;;;;;;14.13;64.36;93614.94;5041137;23;20238;-61
2022/04/09 04:45:51;;;;;;;6.18;3.63;;;;;;;13.78;66.89;93574.72;5033730;28;20198;-60
2022/04/09 04:48:16;;;;;;;4.50;2.95;;;;;;;14.07;65.85;93584.16;5034195;28;20187;-65
2022/04/09 04:50:42;;;;;;;9.63;2.55;;;;;;;14.31;64.53;93609.47;5033657;28;20206;-62
2022/04/09 04:53:07;;;;;;;8.07;2.65;;;;;;;14.26;65.71;93597.19;5032945;28;20183;-63
2022/04/09 04:55:35;;;;;;;6.90;2.75;;;;;;;14.33;65.25;93602.41;5033690;28;20205;-62
2022/04/09 04:58:00;;;;;;;5.05;2.60;;;;;;;14.14;65.99;93590.13;5034031;28;20177;-61
2022/04/09 05:00:26;;;;;;;4.47;3.17;;;;;;;14.04;66.10;93582.75;5033484;28;20194;-66
2022/04/09 05:02:53;;;;;;;13.00;8.55;;;;;;;13.96;66.11;93577.72;5033323;28;20653;-60
2022/04/09 05:05:19;;;;;;;8.10;4.85;;;;;;;14.32;65.62;93587.28;5033430;28;20220;-66
2022/04/09 05:07:51;;;;;;;8.35;4.15;;;;;;;14.17;65.47;93589.81;5033796;28;20197;-62
2022/04/09 05:10:21;;;;;;;9.95;5.72;;;;;;;13.99;66.30;93561.25;5031860;28;20676;-66
2022/04/09 05:12:47;;;;;;;7.38;3.55;;;;;;;14.40;65.47;93580.31;5033525;28;20289;-66
2022/04/09 05:15:15;;;;;;;6.90;3.50;;;;;;;14.33;65.44;93571.75;5033415;28;20186;-65
2022/04/09 05:17:41;;;;;;;14.25;3.03;;;;;;;14.13;65.70;93574.03;5031918;28;20257;-66
2022/04/09 05:20:09;;;;;;;5.47;2.58;;;;;;;14.47;64.40;93596.50;5015219;28;20687;-62
2022/04/09 05:22:37;;;;;;;8.57;2.80;;;;;;;14.86;63.07;93624.28;5033394;28;20206;-61
2022/04/09 05:25:04;;;;;;;6.10;2.33;;;;;;;14.82;63.64;93623.06;5033067;28;20683;-61
2022/04/09 05:27:30;;;;;;;6.60;2.47;;;;;;;14.78;64.06;93607.28;5033205;28;20226;-61
2022/04/09 05:29:55;;;;;;;5.65;2.13;;;;;;;14.61;63.81;93598.22;5033178;28;20179;-63
2022/04/09 05:32:22;;;;;;;3.38;2.25;;;;;;;14.87;62.89;93618.97;5033182;28;20324;-60
2022/04/09 05:34:47;;;;;;;7.25;2.67;;;;;;;15.01;63.83;93605.34;5032947;28;20189;-62
2022/04/09 05:37:13;;;;;;;4.20;2.20;;;;;;;15.21;62.03;93630.34;5032951;28;20210;-63
2022/04/09 05:39:40;;;;;;;2.75;1.90;;;;;;;14.84;62.78;93623.69;5032927;28;20607;-63
2022/04/09 05:42:06;;;;;;;6.63;2.35;;;;;;;14.80;62.68;93633.47;5032780;28;20272;-63
2022/04/09 05:44:32;;;;;;;7.90;2.38;;;;;;;15.07;61.86;93643.00;5033198;28;20190;-62
2022/04/09 05:46:59;;;;;;;7.40;2.40;;;;;;;15.27;61.54;93638.06;5032679;28;20237;-62
2022/04/09 05:49:25;;;;;;;6.10;2.50;;;;;;;15.35;62.33;93621.81;5032593;28;20653;-62
2022/04/09 05:51:50;;;;;;;8.43;2.97;;;;;;;15.40;62.75;93619.47;5030900;28;20206;-61
2022/04/09 05:54:16;;;;;;;8.27;3.58;;;;;;;15.52;62.08;93618.84;5048066;28;20181;-61
2022/04/09 05:56:42;;;;;;;9.43;4.97;;;;;;;15.39;60.94;93638.41;5035912;28;20557;-63
2022/04/09 05:59:07;;;;;;;13.52;7.13;;;;;;;15.03;63.55;93587.25;5046268;28;20623;-61
2022/04/09 06:01:33;;;;;;;7.22;5.40;;;;;;;15.10;64.02;93588.09;5042141;28;20205;-64
2022/04/09 06:03:58;;;;;;;8.32;5.03;;;;;;;15.28;64.82;93582.53;5038972;28;20209;-62
2022/04/09 06:06:24;;;;;;;10.43;5.30;;;;;;;15.44;63.10;93610.47;5046690;28;20209;-63
2022/04/09 06:08:50;;;;;;;11.38;5.10;;;;;;;15.59;62.37;93636.81;5030128;28;20194;-62
2022/04/09 06:11:16;;;;;;;8.80;4.82;;;;;;;15.71;62.54;93635.34;5030486;28;20267;-65
2022/04/09 06:13:41;;;;;;;12.88;4.85;;;;;;;15.66;64.96;93594.91;5021534;28;20199;-66
2022/04/09 06:16:09;;;;;;;10.27;6.72;;;;;;;15.86;63.01;93638.59;5012375;28;20202;-65
2022/04/09 06:18:38;;;;;;;9.38;5.70;;;;;;;16.00;62.89;93639.50;5012715;28;20302;-66
2022/04/09 06:21:04;;;;;;;11.45;5.00;;;;;;;15.81;63.28;93626.38;5012002;28;20286;-62
2022/04/09 06:23:29;;;;;;;8.98;4.68;;;;;;;15.62;64.15;93603.13;5010900;28;20242;-61
2022/04/09 06:25:55;;;;;;;11.10;4.45;;;;;;;15.56;65.16;93593.63;5012335;28;20245;-60
2022/04/09 06:28:20;;;;;;;6.63;3.92;;;;;;;15.74;64.17;93622.16;5012560;28;20234;-62
2022/04/09 06:30:46;;;;;;;10.05;3.58;;;;;;;15.75;62.46;93644.25;5012103;28;20256;-65
2022/04/09 06:33:11;;;;;;;5.72;3.20;;;;;;;15.71;62.75;93618.22;5012745;28;20186;-61
2022/04/09 06:35:36;;;;;;;6.60;3.17;;;;;;;15.73;63.14;93618.00;5010791;28;20206;-66
2022/04/09 06:38:02;;;;;;;8.80;3.70;;;;;;;15.85;71.06;93470.44;5012275;28;20251;-61
2022/04/09 06:40:28;;;;;;;7.32;3.08;;;;;;;15.82;66.59;93565.63;5010810;28;20199;-69
2022/04/09 06:42:54;;;;;;;10.45;3.70;;;;;;;16.00;65.06;93593.34;5012132;28;20245;-62
2022/04/09 06:45:20;;;;;;;9.25;3.05;;;;;;;16.17;62.96;93633.09;5011890;28;20746;-62
2022/04/09 06:47:47;;;;;;;10.13;2.95;;;;;;;16.19;61.75;93657.56;5027446;28;20187;-62
2022/04/09 06:50:14;;;;;;;5.70;2.40;;;;;;;16.13;62.91;93642.94;5012093;28;20182;-66
2022/04/09 06:52:40;;;;;;;7.90;2.42;;;;;;;16.29;61.00;93673.41;5012425;28;20696;-59
2022/04/09 06:55:09;;;;;;;7.47;3.20;;;;;;;16.35;61.26;93672.66;5011996;28;20186;-66
2022/04/09 06:57:35;;;;;;;5.93;2.95;;;;;;;16.00;61.83;93662.56;5027156;28;20198;-62
2022/04/09 07:00:03;;;;;;;10.50;3.20;;;;;;;15.90;62.33;93638.03;5012243;28;20207;-64
2022/04/09 07:02:29;;;;;;;8.63;3.03;;;;;;;15.85;62.70;93627.56;5012267;28;20301;-67
2022/04/09 07:04:54;;;;;;;8.32;2.80;;;;;;;16.07;62.15;93641.13;5027152;28;20273;-64
2022/04/09 07:07:24;;;;;;;8.90;2.70;;;;;;;16.32;60.78;93667.13;5011956;28;20214;-62
2022/04/09 07:09:50;;;;;;;7.28;3.10;;;;;;;16.47;61.05;93654.94;5012064;28;20639;-60
2022/04/09 07:12:16;;;;;;;6.70;2.60;;;;;;;16.29;60.99;93657.22;5012005;28;20649;-67
2022/04/09 07:14:43;;;;;;;9.68;3.03;;;;;;;16.09;60.54;93667.38;5010556;28;20179;-61
2022/04/09 07:17:08;;;;;;;6.95;3.67;;;;;;;16.02;60.48;93661.38;5012007;28;20207;-60
2022/04/09 07:19:34;;;;;;;5.70;2.50;;;;;;;16.20;60.96;93666.84;5011917;28;20671;-65
2022/04/09 07:22:00;;;;;;;7.55;2.55;;;;;;;16.19;60.50;93672.97;5011731;28;20222;-64
2022/04/09 07:24:25;;;;;;;11.10;2.75;;;;;;;16.50;59.75;93683.63;5011803;28;20234;-61
2022/04/09 07:26:51;;;;;;;6.50;2.38;;;;;;;16.67;56.64;93740.56;5011611;28;20743;-62
2022/04/09 07:29:17;;;;;;;3.88;2.25;;;;;;;16.59;57.00;93720.97;5011850;28;20230;-63
2022/04/09 07:31:42;;;;;;;5.68;2.88;;;;;;;16.46;55.92;93750.88;5011544;28;20218;-60
2022/04/09 07:34:08;;;;;;;7.28;3.40;;;;;;;16.34;56.26;93739.53;5011774;28;20684;-67
2022/04/09 07:36:33;;;;;;;6.95;2.90;;;;;;;16.44;56.58;93725.38;5010526;28;20672;-66
2022/04/09 07:38:59;;;;;;;4.90;2.65;;;;;;;16.52;55.58;93747.59;5012023;28;20261;-63
2022/04/09 07:41:24;;;;;;;8.85;2.95;;;;;;;16.55;55.63;93734.38;5038045;23;20651;-61
2022/04/09 07:43:50;;;;;;;7.18;3.20;;;;;;;16.76;56.99;93699.16;5034993;28;20605;-60
2022/04/09 07:46:16;;;;;;;6.50;2.83;;;;;;;16.81;57.86;93682.41;5034855;28;20309;-62
2022/04/09 07:48:41;;;;;;;9.13;2.78;;;;;;;16.90;57.51;93687.19;5035040;28;20225;-60
2022/04/09 07:51:07;;;;;;;4.22;2.28;;;;;;;17.04;56.54;93709.34;5035424;28;20229;-63
2022/04/09 07:53:32;;;;;;;6.15;2.50;;;;;;;17.20;56.82;93693.59;5033674;28;20592;-61
2022/04/09 07:55:58;;;;;;;5.75;2.30;;;;;;;17.47;55.36;93730.44;5035071;28;20292;-65
2022/04/09 07:58:24;;;;;;;6.72;2.22;;;;;;;17.74;55.88;93732.09;5035069;28;20175;-60
2022/04/09 08:00:50;;;;;;;6.22;2.45;;;;;;;17.83;55.31;93733.50;5033471;28;20206;-64
2022/04/09 08:03:16;;;;;;;3.08;2.10;;;;;;;17.57;53.88;93751.44;5034697;28;20208;-59
2022/04/09 08:05:42;;;;;;;8.07;2.38;;;;;;;17.66;54.52;93727.13;5034839;28;20202;-61
2022/04/09 08:08:08;;;;;;;12.30;5.10;;;;;;;17.82;58.40;93652.19;5034852;28;20640;-64
2022/04/09 08:10:35;;;;;;;9.07;4.05;;;;;;;17.94;57.51;93680.66;5034809;28;20229;-66
2022/04/09 08:13:01;;;;;;;7.85;2.50;;;;;;;18.08;56.78;93674.56;5033241;28;20701;-63
2022/04/09 08:15:26;;;;;;;9.32;3.28;;;;;;;17.91;54.64;93723.03;5033262;28;20336;-61
2022/04/09 08:17:54;;;;;;;5.85;2.65;;;;;;;18.11;54.47;93713.53;5034386;28;20222;-60
2022/04/09 08:20:20;;;;;;;6.28;3.45;;;;;;;17.97;53.67;93732.53;5034466;28;20213;-65
2022/04/09 08:22:46;;;;;;;7.07;2.95;;;;;;;18.18;54.30;93703.25;5034533;28;20633;-61
2022/04/09 08:25:12;;;;;;;7.40;2.30;;;;;;;18.51;54.59;93690.34;5034549;28;20183;-61
2022/04/09 08:27:38;;;;;;;6.00;2.67;;;;;;;18.81;54.85;93707.69;5033558;28;20190;-61
2022/04/09 08:30:06;;;;;;;6.30;2.38;;;;;;;18.80;52.37;93747.34;5034227;28;20186;-61
2022/04/09 08:32:32;;;;;;;8.93;2.50;;;;;;;19.15;52.37;93742.66;5034529;28;20186;-62
2022/04/09 08:34:57;;;;;;;12.32;3.15;;;;;;;19.13;50.74;93760.09;5032821;28;20269;-60
2022/04/09 08:37:23;;;;;;;6.22;2.95;;;;;;;19.21;49.64;93760.69;5033911;28;20232;-62
2022/04/09 08:39:50;;;;;;;5.25;2.47;;;;;;;19.21;48.79;93757.31;5034055;28;20170;-65
2022/04/09 08:42:16;;;;;;;5.40;2.28;;;;;;;19.50;49.12;93746.50;5034157;28;20206;-60
2022/04/09 08:44:42;;;;;;;5.18;1.98;;;;;;;19.49;47.29;93759.63;5033805;28;20174;-62
2022/04/09 08:47:08;;;;;;;8.05;2.40;;;;;;;19.48;47.01;93745.13;5033871;28;20191;-59
2022/04/09 08:49:41;;;;;;;4.40;2.17;;;;;;;19.44;49.81;93687.25;5033601;28;20209;-60
2022/04/09 08:52:08;;;;;;;5.55;2.22;;;;;;;19.46;47.20;93722.13;5033180;28;20588;-60
2022/04/09 08:54:36;;;;;;;4.43;2.47;;;;;;;19.56;50.07;93663.19;5033420;28;20193;-60
2022/04/09 08:57:02;;;;;;;3.78;2.30;;;;;;;19.59;46.53;93734.16;5033632;28;20710;-64
2022/04/09 08:59:28;;;;;;;4.70;2.35;;;;;;;19.42;47.37;93715.00;5033522;28;20687;-66
2022/04/09 09:01:54;;;;;;;7.97;2.17;;;;;;;19.49;48.93;93682.28;5032217;28;20256;-65
2022/04/09 09:04:19;;;;;;;6.82;2.25;;;;;;;19.85;49.28;93678.06;5032357;28;20257;-61
2022/04/09 09:06:45;;;;;;;7.55;2.08;;;;;;;19.92;46.24;93724.44;5033330;28;20202;-62
2022/04/09 09:09:32;;;;;;;4.22;2.00;;;;;;;20.01;45.65;93728.34;5033259;28;20257;-61
2022/04/09 09:12:03;;;;;;;5.35;1.80;;;;;;;20.15;47.67;93680.00;5033011;28;20256;-63
2022/04/09 09:14:32;;;;;;;5.57;1.88;;;;;;;20.23;44.82;93741.69;5033419;28;20198;-63
2022/04/09 09:16:58;;;;;;;2.92;1.60;;;;;;;20.07;43.06;93743.78;5033602;28;20230;-61
2022/04/09 09:19:48;;;;;;;5.90;2.00;;;;;;;19.95;43.45;93729.97;5033141;28;20576;-64
2022/04/09 09:22:18;;;;;;;5.57;2.45;;;;;;;20.00;44.71;93700.94;5032963;28;20708;-62
2022/04/09 09:25:02;;;;;;;3.72;1.42;;;;;;;19.97;44.91;93696.22;5033201;28;20167;-61
2022/04/09 09:27:27;;;;;;;5.95;1.92;;;;;;;20.07;44.36;93701.69;5033001;28;20231;-65
2022/04/09 09:29:53;;;;;;;4.93;1.98;;;;;;;20.09;43.12;93715.19;5033319;28;20564;-62
2022/04/09 09:32:25;;;;;;;4.50;1.80;;;;;;;20.17;43.47;93706.38;5032921;28;20202;-60
2022/04/09 09:34:55;;;;;;;6.18;1.83;;;;;;;20.13;42.90;93705.22;5033137;28;20179;-61
2022/04/09 09:37:25;;;;;;;5.78;2.10;;;;;;;20.20;43.13;93696.44;5032846;28;20626;-65
2022/04/09 09:39:51;;;;;;;10.10;2.15;;;;;;;20.33;42.81;93698.13;5031530;28;20182;-62
2022/04/09 09:42:21;;;;;;;3.53;2.10;;;;;;;20.45;42.15;93711.94;5033499;28;20280;-61
2022/04/09 09:44:47;;;;;;;6.68;2.30;;;;;;;20.64;42.72;93692.88;5033067;28;20289;-62
2022/04/09 09:47:14;;;;;;;6.93;2.20;;;;;;;20.96;41.55;93716.78;5031642;28;20326;-61
2022/04/09 09:49:58;;;;;;;4.07;1.98;;;;;;;21.18;41.35;93713.56;5032498;28;20193;-62
2022/04/09 09:52:27;;;;;;;3.35;1.65;;;;;;;21.54;39.36;93747.13;5031474;28;20260;-60
2022/04/09 09:54:58;;;;;;;3.50;1.52;;;;;;;21.89;39.42;93736.16;5032815;28;20182;-60
2022/04/09 09:57:28;;;;;;;2.50;1.00;;;;;;;21.77;37.75;93756.78;5032538;28;20203;-63
2022/04/09 09:59:58;;;;;;;8.93;1.90;;;;;;;21.83;39.25;93711.16;5032500;28;20328;-62
2022/04/09 10:02:25;;;;;;;6.72;1.25;;;;;;;21.91;35.31;93780.72;5032303;28;20203;-61
2022/04/09 10:04:52;;;;;;;6.65;1.48;;;;;;;21.55;35.43;93758.28;5031694;28;20201;-63
2022/04/09 10:07:21;;;;;;;1.58;1.35;;;;;;;21.48;35.48;93740.25;5031096;28;20695;-64
2022/04/09 10:09:49;;;;;;;4.00;1.15;;;;;;;21.42;35.63;93738.53;5032298;28;20190;-62
2022/04/09 10:12:20;;;;;;;2.13;1.50;;;;;;;21.62;35.79;93730.50;5032280;28;20260;-63
2022/04/09 10:14:59;;;;;;;4.13;1.50;;;;;;;21.46;35.60;93724.16;5031049;28;20190;-62
2022/04/09 10:17:26;;;;;;;2.65;1.27;;;;;;;21.86;36.30;93718.47;5032232;28;20170;-62
2022/04/09 10:19:58;;;;;;;1.40;1.17;;;;;;;21.81;34.91;93733.84;5032803;28;20262;-62
2022/04/09 10:22:27;;;;;;;4.68;1.23;;;;;;;21.51;35.64;93718.34;5032284;28;20777;-61
2022/04/09 10:24:55;;;;;;;5.60;1.83;;;;;;;21.31;35.74;93702.28;5031776;28;20205;-61
2022/04/09 10:27:38;;;;;;;4.95;1.55;;;;;;;21.52;35.12;93725.88;5030546;28;20287;-61
2022/04/09 10:30:13;;;;;;;3.13;1.17;;;;;;;21.37;35.69;93704.00;5032460;28;20201;-64
2022/04/09 10:32:42;;;;;;;2.60;1.10;;;;;;;21.72;35.44;93705.69;5032274;28;20635;-63
2022/04/09 10:35:30;;;;;;;4.13;1.40;;;;;;;21.96;37.98;93652.22;5039024;23;20229;-64
2022/04/09 10:38:09;;;;;;;2.70;1.20;;;;;;;22.18;35.93;93694.66;5032307;28;20206;-61
2022/04/09 10:40:36;;;;;;;2.78;1.45;;;;;;;22.05;39.00;93626.78;5032451;28;20190;-63
2022/04/09 10:43:04;;;;;;;4.65;1.13;;;;;;;22.13;37.28;93658.31;5033074;28;20272;-63
2022/04/09 10:45:32;;;;;;;5.32;1.20;;;;;;;22.18;37.42;93649.88;5031883;28;20210;-64
2022/04/09 10:48:11;;;;;;;3.92;1.30;;;;;;;22.64;36.17;93696.53;5032376;28;20197;-62
2022/04/09 10:51:01;;;;;;;5.00;0.95;;;;;;;22.49;35.87;93675.44;5031943;28;20574;-61
2022/04/09 10:53:29;;;;;;;4.50;3.30;;;;;;;22.81;39.41;93598.91;5031938;28;20190;-62
2022/04/09 10:56:26;;;;;;;9.40;4.15;;;;;;;22.83;37.39;93648.72;5030581;28;20206;-61
2022/04/09 10:59:08;;;;;;;8.00;4.50;;;;;;;23.02;36.22;93657.91;5031835;28;20183;-63
2022/04/09 11:01:51;;;;;;;6.75;2.17;;;;;;;22.91;35.98;93669.09;5030448;28;20339;-62
2022/04/09 11:04:25;;;;;;;8.57;3.47;;;;;;;22.91;37.18;93640.56;5031968;28;20277;-63
2022/04/09 11:07:16;;;;;;;6.95;2.33;;;;;;;22.78;37.55;93630.47;5031464;28;20735;-64
2022/04/09 11:09:51;;;;;;;1.55;1.13;;;;;;;22.76;34.58;93689.53;5030740;28;20267;-64
2022/04/09 11:12:39;;;;;;;6.25;1.58;;;;;;;22.89;38.07;93603.72;5030222;28;20209;-64
2022/04/09 11:15:08;;;;;;;6.30;2.70;;;;;;;22.81;37.44;93614.47;5031094;28;20186;-63
2022/04/09 11:17:45;;;;;;;8.45;4.82;;;;;;;22.68;39.89;93565.50;5035670;28;20213;-63
2022/04/09 11:20:16;;;;;;;1.88;1.30;;;;;;;22.35;35.51;93666.31;5035840;28;20212;-63
2022/04/09 11:22:53;;;;;;;3.30;1.08;;;;;;;22.17;35.23;93656.06;5035442;28;20206;-64
2022/04/09 11:25:30;;;;;;;1.48;1.00;;;;;;;21.92;36.24;93629.59;5035553;28;20198;-62
2022/04/09 11:28:06;;;;;;;4.28;1.38;;;;;;;21.93;36.15;93628.59;5035319;28;20650;-61
2022/04/09 11:30:31;;;;;;;3.95;1.35;;;;;;;21.83;35.95;93625.75;5035309;28;20234;-63
2022/04/09 11:32:57;;;;;;;6.35;1.02;;;;;;;21.74;37.27;93589.84;5035258;28;20221;-62